sensor_id;sensor_type;location;lat;lon;timestamp;temperature;humidity
17182;DHT22;8706;48.254;16.422;2024-02-28T00:00:46;19.60;59.00
17182;DHT22;8706;48.254;16.422;2024-02-28T00:03:13;19.60;59.00
17182;DHT22;8706;48.254;16.422;2024-02-28T00:05:40;19.60;59.00
17182;DHT22;8706;48.254;16.422;2024-02-28T00:08:07;19.60;59.00
17182;DHT22;8706;48.254;16.422;2024-02-28T00:10:33;19.60;59.10
17182;DHT22;8706;48.254;16.422;2024-02-28T00:13:00;19.60;59.10
17182;DHT22;8706;48.254;16.422;2024-02-28T00:15:27;19.50;59.10
17182;DHT22;8706;48.254;16.422;2024-02-28T00:17:55;19.60;59.10
17182;DHT22;8706;48.254;16.422;2024-02-28T00:20:24;19.50;59.10
17182;DHT22;8706;48.254;16.422;2024-02-28T00:22:52;19.50;59.10
17182;DHT22;8706;48.254;16.422;2024-02-28T00:25:19;19.50;59.70
17182;DHT22;8706;48.254;16.422;2024-02-28T00:27:46;19.50;59.10
17182;DHT22;8706;48.254;16.422;2024-02-28T00:30:13;19.50;59.10
17182;DHT22;8706;48.254;16.422;2024-02-28T00:32:40;19.50;59.20
17182;DHT22;8706;48.254;16.422;2024-02-28T00:35:08;19.50;59.20
17182;DHT22;8706;48.254;16.422;2024-02-28T00:37:35;19.50;59.20
17182;DHT22;8706;48.254;16.422;2024-02-28T00:40:02;19.50;59.20
17182;DHT22;8706;48.254;16.422;2024-02-28T00:42:29;19.50;59.20
17182;DHT22;8706;48.254;16.422;2024-02-28T00:44:56;19.50;59.10
17182;DHT22;8706;48.254;16.422;2024-02-28T00:47:23;19.50;59.10
17182;DHT22;8706;48.254;16.422;2024-02-28T00:49:50;19.50;59.20
17182;DHT22;8706;48.254;16.422;2024-02-28T00:52:18;19.50;59.10
17182;DHT22;8706;48.254;16.422;2024-02-28T00:54:45;19.50;59.20
17182;DHT22;8706;48.254;16.422;2024-02-28T00:57:12;19.50;59.20
17182;DHT22;8706;48.254;16.422;2024-02-28T00:59:39;19.50;59.10
17182;DHT22;8706;48.254;16.422;2024-02-28T01:02:05;19.50;59.20
17182;DHT22;8706;48.254;16.422;2024-02-28T01:04:32;19.50;59.10
17182;DHT22;8706;48.254;16.422;2024-02-28T01:06:59;19.50;59.20
17182;DHT22;8706;48.254;16.422;2024-02-28T01:09:27;19.50;59.20
17182;DHT22;8706;48.254;16.422;2024-02-28T01:11:54;19.50;59.20
17182;DHT22;8706;48.254;16.422;2024-02-28T01:14:21;19.60;59.20
17182;DHT22;8706;48.254;16.422;2024-02-28T01:16:48;19.60;59.20
17182;DHT22;8706;48.254;16.422;2024-02-28T01:19:16;19.50;59.20
17182;DHT22;8706;48.254;16.422;2024-02-28T01:21:42;19.60;59.20
17182;DHT22;8706;48.254;16.422;2024-02-28T01:24:09;19.50;59.20
17182;DHT22;8706;48.254;16.422;2024-02-28T01:26:37;19.50;59.20
17182;DHT22;8706;48.254;16.422;2024-02-28T01:29:04;19.50;59.20
17182;DHT22;8706;48.254;16.422;2024-02-28T01:31:31;19.50;59.20
17182;DHT22;8706;48.254;16.422;2024-02-28T01:33:58;19.50;59.20
17182;DHT22;8706;48.254;16.422;2024-02-28T01:36:25;19.50;59.20
17182;DHT22;8706;48.254;16.422;2024-02-28T01:38:52;19.50;59.20
17182;DHT22;8706;48.254;16.422;2024-02-28T01:41:19;19.50;59.80
17182;DHT22;8706;48.254;16.422;2024-02-28T01:43:48;19.50;59.20
17182;DHT22;8706;48.254;16.422;2024-02-28T01:46:23;19.60;59.20
17182;DHT22;8706;48.254;16.422;2024-02-28T01:48:52;19.50;59.20
17182;DHT22;8706;48.254;16.422;2024-02-28T01:51:20;19.50;59.20
17182;DHT22;8706;48.254;16.422;2024-02-28T01:53:47;19.60;59.20
17182;DHT22;8706;48.254;16.422;2024-02-28T01:56:14;19.50;59.20
17182;DHT22;8706;48.254;16.422;2024-02-28T01:58:43;19.60;59.30
17182;DHT22;8706;48.254;16.422;2024-02-28T02:01:13;19.60;59.30
17182;DHT22;8706;48.254;16.422;2024-02-28T02:03:42;19.60;59.30
17182;DHT22;8706;48.254;16.422;2024-02-28T02:06:09;19.60;59.30
17182;DHT22;8706;48.254;16.422;2024-02-28T02:08:37;19.50;59.20
17182;DHT22;8706;48.254;16.422;2024-02-28T02:11:04;19.60;59.20
17182;DHT22;8706;48.254;16.422;2024-02-28T02:13:32;19.50;59.20
17182;DHT22;8706;48.254;16.422;2024-02-28T02:15:58;19.50;59.20
17182;DHT22;8706;48.254;16.422;2024-02-28T02:18:27;19.50;59.30
17182;DHT22;8706;48.254;16.422;2024-02-28T02:20:58;19.60;59.30
17182;DHT22;8706;48.254;16.422;2024-02-28T02:23:30;19.50;59.30
17182;DHT22;8706;48.254;16.422;2024-02-28T02:25:57;19.60;59.30
17182;DHT22;8706;48.254;16.422;2024-02-28T02:28:24;19.50;59.20
17182;DHT22;8706;48.254;16.422;2024-02-28T02:30:51;19.60;59.30
17182;DHT22;8706;48.254;16.422;2024-02-28T02:33:18;19.50;59.30
17182;DHT22;8706;48.254;16.422;2024-02-28T02:35:45;19.60;59.30
17182;DHT22;8706;48.254;16.422;2024-02-28T02:38:12;19.60;59.30
17182;DHT22;8706;48.254;16.422;2024-02-28T02:40:40;19.60;59.30
17182;DHT22;8706;48.254;16.422;2024-02-28T02:43:07;19.50;59.30
17182;DHT22;8706;48.254;16.422;2024-02-28T02:45:34;19.50;59.30
17182;DHT22;8706;48.254;16.422;2024-02-28T02:48:00;19.50;59.30
17182;DHT22;8706;48.254;16.422;2024-02-28T02:50:27;19.50;59.30
17182;DHT22;8706;48.254;16.422;2024-02-28T02:52:54;19.50;59.30
17182;DHT22;8706;48.254;16.422;2024-02-28T02:55:21;19.50;59.30
17182;DHT22;8706;48.254;16.422;2024-02-28T02:57:49;19.50;59.30
17182;DHT22;8706;48.254;16.422;2024-02-28T03:00:16;19.50;59.30
17182;DHT22;8706;48.254;16.422;2024-02-28T03:02:43;19.50;59.30
17182;DHT22;8706;48.254;16.422;2024-02-28T03:05:10;19.50;59.40
17182;DHT22;8706;48.254;16.422;2024-02-28T03:07:37;19.50;59.30
17182;DHT22;8706;48.254;16.422;2024-02-28T03:10:05;19.50;59.20
17182;DHT22;8706;48.254;16.422;2024-02-28T03:12:32;19.60;59.30
17182;DHT22;8706;48.254;16.422;2024-02-28T03:15:00;19.60;59.30
17182;DHT22;8706;48.254;16.422;2024-02-28T03:17:28;19.50;59.30
17182;DHT22;8706;48.254;16.422;2024-02-28T03:19:55;19.50;59.30
17182;DHT22;8706;48.254;16.422;2024-02-28T03:22:22;19.50;59.40
17182;DHT22;8706;48.254;16.422;2024-02-28T03:24:49;19.50;59.40
17182;DHT22;8706;48.254;16.422;2024-02-28T03:27:16;19.50;59.30
17182;DHT22;8706;48.254;16.422;2024-02-28T03:29:43;19.50;59.40
17182;DHT22;8706;48.254;16.422;2024-02-28T03:32:11;19.50;59.40
17182;DHT22;8706;48.254;16.422;2024-02-28T03:34:38;19.50;59.40
17182;DHT22;8706;48.254;16.422;2024-02-28T03:37:05;19.50;59.40
17182;DHT22;8706;48.254;16.422;2024-02-28T03:39:32;19.50;59.40
17182;DHT22;8706;48.254;16.422;2024-02-28T03:41:59;19.50;59.40
17182;DHT22;8706;48.254;16.422;2024-02-28T03:44:26;19.50;59.40
17182;DHT22;8706;48.254;16.422;2024-02-28T03:46:53;19.50;59.40
17182;DHT22;8706;48.254;16.422;2024-02-28T03:49:21;19.50;59.40
17182;DHT22;8706;48.254;16.422;2024-02-28T03:51:48;19.50;59.50
17182;DHT22;8706;48.254;16.422;2024-02-28T03:54:15;19.50;59.50
17182;DHT22;8706;48.254;16.422;2024-02-28T03:56:42;19.50;59.60
17182;DHT22;8706;48.254;16.422;2024-02-28T03:59:08;19.50;59.60
17182;DHT22;8706;48.254;16.422;2024-02-28T04:01:35;19.40;59.60
17182;DHT22;8706;48.254;16.422;2024-02-28T04:04:02;19.50;59.60
17182;DHT22;8706;48.254;16.422;2024-02-28T04:06:31;19.40;59.60
17182;DHT22;8706;48.254;16.422;2024-02-28T04:08:58;19.50;59.60
17182;DHT22;8706;48.254;16.422;2024-02-28T04:11:26;19.40;59.50
17182;DHT22;8706;48.254;16.422;2024-02-28T04:13:52;19.40;59.70
17182;DHT22;8706;48.254;16.422;2024-02-28T04:16:19;19.40;59.60
17182;DHT22;8706;48.254;16.422;2024-02-28T04:18:46;19.40;59.70
17182;DHT22;8706;48.254;16.422;2024-02-28T04:21:13;19.40;59.70
17182;DHT22;8706;48.254;16.422;2024-02-28T04:23:41;19.40;59.60
17182;DHT22;8706;48.254;16.422;2024-02-28T04:26:09;19.40;59.60
17182;DHT22;8706;48.254;16.422;2024-02-28T04:28:36;19.40;59.60
17182;DHT22;8706;48.254;16.422;2024-02-28T04:31:03;19.40;59.70
17182;DHT22;8706;48.254;16.422;2024-02-28T04:33:30;19.40;59.70
17182;DHT22;8706;48.254;16.422;2024-02-28T04:35:57;19.40;59.70
17182;DHT22;8706;48.254;16.422;2024-02-28T04:38:24;19.40;59.70
17182;DHT22;8706;48.254;16.422;2024-02-28T04:40:52;19.40;59.70
17182;DHT22;8706;48.254;16.422;2024-02-28T04:43:19;19.40;59.70
17182;DHT22;8706;48.254;16.422;2024-02-28T04:45:45;19.40;59.70
17182;DHT22;8706;48.254;16.422;2024-02-28T04:48:12;19.40;59.80
17182;DHT22;8706;48.254;16.422;2024-02-28T04:50:39;19.30;59.70
17182;DHT22;8706;48.254;16.422;2024-02-28T04:53:06;19.40;59.80
17182;DHT22;8706;48.254;16.422;2024-02-28T04:55:34;19.40;60.40
17182;DHT22;8706;48.254;16.422;2024-02-28T04:58:02;19.40;59.80
17182;DHT22;8706;48.254;16.422;2024-02-28T05:00:29;19.30;59.80
17182;DHT22;8706;48.254;16.422;2024-02-28T05:02:56;19.30;59.80
17182;DHT22;8706;48.254;16.422;2024-02-28T05:05:23;19.30;59.80
17182;DHT22;8706;48.254;16.422;2024-02-28T05:07:50;19.30;59.80
17182;DHT22;8706;48.254;16.422;2024-02-28T05:10:17;19.30;59.80
17182;DHT22;8706;48.254;16.422;2024-02-28T05:12:44;19.30;59.80
17182;DHT22;8706;48.254;16.422;2024-02-28T05:15:12;19.30;59.80
17182;DHT22;8706;48.254;16.422;2024-02-28T05:17:39;19.30;59.80
17182;DHT22;8706;48.254;16.422;2024-02-28T05:20:07;19.30;59.80
17182;DHT22;8706;48.254;16.422;2024-02-28T05:22:33;19.30;59.80
17182;DHT22;8706;48.254;16.422;2024-02-28T05:25:00;19.30;59.90
17182;DHT22;8706;48.254;16.422;2024-02-28T05:27:27;19.30;59.90
17182;DHT22;8706;48.254;16.422;2024-02-28T05:29:54;19.30;59.90
17182;DHT22;8706;48.254;16.422;2024-02-28T05:32:22;19.30;59.90
17182;DHT22;8706;48.254;16.422;2024-02-28T05:34:49;19.30;59.90
17182;DHT22;8706;48.254;16.422;2024-02-28T05:37:16;19.30;59.90
17182;DHT22;8706;48.254;16.422;2024-02-28T05:39:43;19.30;59.80
17182;DHT22;8706;48.254;16.422;2024-02-28T05:42:10;19.30;60.50
17182;DHT22;8706;48.254;16.422;2024-02-28T05:44:37;19.30;59.90
17182;DHT22;8706;48.254;16.422;2024-02-28T05:47:04;19.30;59.90
17182;DHT22;8706;48.254;16.422;2024-02-28T05:49:33;19.30;59.90
17182;DHT22;8706;48.254;16.422;2024-02-28T05:52:00;19.30;59.90
17182;DHT22;8706;48.254;16.422;2024-02-28T05:54:26;19.30;59.90
17182;DHT22;8706;48.254;16.422;2024-02-28T05:56:53;19.20;59.90
17182;DHT22;8706;48.254;16.422;2024-02-28T05:59:20;19.20;59.90
17182;DHT22;8706;48.254;16.422;2024-02-28T06:01:47;19.20;59.90
17182;DHT22;8706;48.254;16.422;2024-02-28T06:04:14;19.20;59.90
17182;DHT22;8706;48.254;16.422;2024-02-28T06:06:42;19.20;59.90
17182;DHT22;8706;48.254;16.422;2024-02-28T06:09:09;19.20;59.90
17182;DHT22;8706;48.254;16.422;2024-02-28T06:11:37;19.20;59.90
17182;DHT22;8706;48.254;16.422;2024-02-28T06:14:04;19.20;59.90
17182;DHT22;8706;48.254;16.422;2024-02-28T06:16:30;19.20;59.90
17182;DHT22;8706;48.254;16.422;2024-02-28T06:18:57;19.20;59.90
17182;DHT22;8706;48.254;16.422;2024-02-28T06:21:24;19.20;59.80
17182;DHT22;8706;48.254;16.422;2024-02-28T06:23:52;19.20;59.90
17182;DHT22;8706;48.254;16.422;2024-02-28T06:26:19;19.20;59.80
17182;DHT22;8706;48.254;16.422;2024-02-28T06:28:46;19.20;59.80
17182;DHT22;8706;48.254;16.422;2024-02-28T06:31:14;19.30;59.80
17182;DHT22;8706;48.254;16.422;2024-02-28T06:33:41;19.30;59.80
17182;DHT22;8706;48.254;16.422;2024-02-28T06:36:08;19.30;59.80
17182;DHT22;8706;48.254;16.422;2024-02-28T06:38:35;19.30;59.80
17182;DHT22;8706;48.254;16.422;2024-02-28T06:41:04;19.30;59.70
17182;DHT22;8706;48.254;16.422;2024-02-28T06:43:33;19.30;59.80
17182;DHT22;8706;48.254;16.422;2024-02-28T06:46:01;19.30;59.70
17182;DHT22;8706;48.254;16.422;2024-02-28T06:48:28;19.30;59.70
17182;DHT22;8706;48.254;16.422;2024-02-28T06:50:55;19.30;59.60
17182;DHT22;8706;48.254;16.422;2024-02-28T06:53:22;19.40;59.60
17182;DHT22;8706;48.254;16.422;2024-02-28T06:55:48;19.40;59.50
17182;DHT22;8706;48.254;16.422;2024-02-28T06:58:17;19.40;59.50
17182;DHT22;8706;48.254;16.422;2024-02-28T07:00:44;19.40;59.40
17182;DHT22;8706;48.254;16.422;2024-02-28T07:03:10;19.40;59.40
17182;DHT22;8706;48.254;16.422;2024-02-28T07:05:37;19.40;59.40
17182;DHT22;8706;48.254;16.422;2024-02-28T07:08:04;19.50;59.40
17182;DHT22;8706;48.254;16.422;2024-02-28T07:10:31;19.50;59.30
17182;DHT22;8706;48.254;16.422;2024-02-28T07:12:58;19.50;59.30
17182;DHT22;8706;48.254;16.422;2024-02-28T07:15:26;19.50;59.20
17182;DHT22;8706;48.254;16.422;2024-02-28T07:17:53;19.60;59.20
17182;DHT22;8706;48.254;16.422;2024-02-28T07:20:20;19.60;59.20
17182;DHT22;8706;48.254;16.422;2024-02-28T07:22:47;19.60;59.20
17182;DHT22;8706;48.254;16.422;2024-02-28T07:25:14;19.60;59.10
17182;DHT22;8706;48.254;16.422;2024-02-28T07:27:40;19.60;59.10
17182;DHT22;8706;48.254;16.422;2024-02-28T07:30:08;19.70;59.00
17182;DHT22;8706;48.254;16.422;2024-02-28T07:32:36;19.70;59.00
17182;DHT22;8706;48.254;16.422;2024-02-28T07:35:03;19.70;58.90
17182;DHT22;8706;48.254;16.422;2024-02-28T07:37:30;19.70;58.80
17182;DHT22;8706;48.254;16.422;2024-02-28T07:39:57;19.80;58.90
17182;DHT22;8706;48.254;16.422;2024-02-28T07:42:24;19.80;58.80
17182;DHT22;8706;48.254;16.422;2024-02-28T07:44:51;19.80;58.70
17182;DHT22;8706;48.254;16.422;2024-02-28T07:47:22;19.80;58.60
17182;DHT22;8706;48.254;16.422;2024-02-28T07:49:50;19.90;58.70
17182;DHT22;8706;48.254;16.422;2024-02-28T07:52:17;19.90;58.60
17182;DHT22;8706;48.254;16.422;2024-02-28T07:54:44;19.90;58.60
17182;DHT22;8706;48.254;16.422;2024-02-28T07:57:11;19.90;58.40
17182;DHT22;8706;48.254;16.422;2024-02-28T07:59:41;20.00;58.40
17182;DHT22;8706;48.254;16.422;2024-02-28T08:02:08;20.10;58.30
17182;DHT22;8706;48.254;16.422;2024-02-28T08:04:37;20.10;58.20
17182;DHT22;8706;48.254;16.422;2024-02-28T08:07:06;20.20;58.20
17182;DHT22;8706;48.254;16.422;2024-02-28T08:09:32;20.20;58.00
17182;DHT22;8706;48.254;16.422;2024-02-28T08:11:59;20.30;57.80
17182;DHT22;8706;48.254;16.422;2024-02-28T08:14:27;20.40;57.70
17182;DHT22;8706;48.254;16.422;2024-02-28T08:16:54;20.40;57.60
17182;DHT22;8706;48.254;16.422;2024-02-28T08:19:21;20.40;57.60
17182;DHT22;8706;48.254;16.422;2024-02-28T08:21:48;20.50;57.60
17182;DHT22;8706;48.254;16.422;2024-02-28T08:24:16;20.50;57.50
17182;DHT22;8706;48.254;16.422;2024-02-28T08:26:43;20.60;57.40
17182;DHT22;8706;48.254;16.422;2024-02-28T08:29:10;20.70;57.30
17182;DHT22;8706;48.254;16.422;2024-02-28T08:31:41;20.70;57.20
17182;DHT22;8706;48.254;16.422;2024-02-28T08:34:08;20.70;57.10
17182;DHT22;8706;48.254;16.422;2024-02-28T08:36:35;20.70;57.10
17182;DHT22;8706;48.254;16.422;2024-02-28T08:39:03;20.80;57.00
17182;DHT22;8706;48.254;16.422;2024-02-28T08:41:33;20.80;57.00
17182;DHT22;8706;48.254;16.422;2024-02-28T08:44:00;20.90;56.90
17182;DHT22;8706;48.254;16.422;2024-02-28T08:46:27;21.00;56.70
17182;DHT22;8706;48.254;16.422;2024-02-28T08:48:54;21.10;56.60
17182;DHT22;8706;48.254;16.422;2024-02-28T08:51:21;21.10;56.50
17182;DHT22;8706;48.254;16.422;2024-02-28T08:53:48;21.20;56.50
17182;DHT22;8706;48.254;16.422;2024-02-28T08:56:15;21.20;56.30
17182;DHT22;8706;48.254;16.422;2024-02-28T08:58:43;21.30;56.30
17182;DHT22;8706;48.254;16.422;2024-02-28T09:01:13;21.30;56.30
17182;DHT22;8706;48.254;16.422;2024-02-28T09:03:41;21.30;56.30
17182;DHT22;8706;48.254;16.422;2024-02-28T09:06:08;21.40;56.10
17182;DHT22;8706;48.254;16.422;2024-02-28T09:08:35;21.40;56.00
17182;DHT22;8706;48.254;16.422;2024-02-28T09:11:02;21.50;56.00
17182;DHT22;8706;48.254;16.422;2024-02-28T09:13:30;21.50;56.00
17182;DHT22;8706;48.254;16.422;2024-02-28T09:15:58;21.50;55.90
17182;DHT22;8706;48.254;16.422;2024-02-28T09:18:25;21.50;55.90
17182;DHT22;8706;48.254;16.422;2024-02-28T09:20:52;21.50;55.70
17182;DHT22;8706;48.254;16.422;2024-02-28T09:23:19;21.60;55.80
17182;DHT22;8706;48.254;16.422;2024-02-28T09:25:46;21.60;55.80
17182;DHT22;8706;48.254;16.422;2024-02-28T09:28:13;21.60;55.80
17182;DHT22;8706;48.254;16.422;2024-02-28T09:30:41;21.70;55.70
17182;DHT22;8706;48.254;16.422;2024-02-28T09:33:09;21.80;55.50
17182;DHT22;8706;48.254;16.422;2024-02-28T09:35:36;21.90;55.40
17182;DHT22;8706;48.254;16.422;2024-02-28T09:38:03;21.90;55.30
17182;DHT22;8706;48.254;16.422;2024-02-28T09:40:30;22.00;55.20
17182;DHT22;8706;48.254;16.422;2024-02-28T09:43:01;22.10;55.10
17182;DHT22;8706;48.254;16.422;2024-02-28T09:45:29;22.10;55.00
17182;DHT22;8706;48.254;16.422;2024-02-28T09:47:57;22.20;54.80
17182;DHT22;8706;48.254;16.422;2024-02-28T09:50:25;22.30;54.60
17182;DHT22;8706;48.254;16.422;2024-02-28T09:52:52;22.70;54.20
17182;DHT22;8706;48.254;16.422;2024-02-28T09:55:19;22.60;54.10
17182;DHT22;8706;48.254;16.422;2024-02-28T09:57:48;22.70;54.10
17182;DHT22;8706;48.254;16.422;2024-02-28T10:00:18;22.90;53.70
17182;DHT22;8706;48.254;16.422;2024-02-28T10:02:47;23.10;53.50
17182;DHT22;8706;48.254;16.422;2024-02-28T10:05:14;23.20;53.40
17182;DHT22;8706;48.254;16.422;2024-02-28T10:07:43;23.40;53.00
17182;DHT22;8706;48.254;16.422;2024-02-28T10:10:10;23.50;52.90
17182;DHT22;8706;48.254;16.422;2024-02-28T10:12:41;23.90;52.30
17182;DHT22;8706;48.254;16.422;2024-02-28T10:15:10;24.00;52.00
17182;DHT22;8706;48.254;16.422;2024-02-28T10:17:37;24.20;51.80
17182;DHT22;8706;48.254;16.422;2024-02-28T10:20:05;24.40;51.50
17182;DHT22;8706;48.254;16.422;2024-02-28T10:22:35;24.50;51.40
17182;DHT22;8706;48.254;16.422;2024-02-28T10:25:04;24.90;51.00
17182;DHT22;8706;48.254;16.422;2024-02-28T10:27:34;25.40;50.40
17182;DHT22;8706;48.254;16.422;2024-02-28T10:30:01;25.60;49.90
17182;DHT22;8706;48.254;16.422;2024-02-28T10:32:30;25.80;49.80
17182;DHT22;8706;48.254;16.422;2024-02-28T10:34:58;25.90;49.40
17182;DHT22;8706;48.254;16.422;2024-02-28T10:37:28;26.00;49.50
17182;DHT22;8706;48.254;16.422;2024-02-28T10:39:57;26.10;49.20
17182;DHT22;8706;48.254;16.422;2024-02-28T10:42:29;26.00;49.20
17182;DHT22;8706;48.254;16.422;2024-02-28T10:44:58;25.90;49.50
17182;DHT22;8706;48.254;16.422;2024-02-28T10:47:26;25.80;49.40
17182;DHT22;8706;48.254;16.422;2024-02-28T10:49:53;25.90;49.40
17182;DHT22;8706;48.254;16.422;2024-02-28T10:52:21;25.90;49.40
17182;DHT22;8706;48.254;16.422;2024-02-28T10:54:53;26.00;49.20
17182;DHT22;8706;48.254;16.422;2024-02-28T10:57:22;26.40;48.90
17182;DHT22;8706;48.254;16.422;2024-02-28T10:59:53;26.70;48.70
17182;DHT22;8706;48.254;16.422;2024-02-28T11:02:20;26.90;48.30
17182;DHT22;8706;48.254;16.422;2024-02-28T11:04:48;27.00;48.30
17182;DHT22;8706;48.254;16.422;2024-02-28T11:07:20;27.00;48.20
17182;DHT22;8706;48.254;16.422;2024-02-28T11:09:47;27.10;48.30
17182;DHT22;8706;48.254;16.422;2024-02-28T11:12:25;27.10;48.00
17182;DHT22;8706;48.254;16.422;2024-02-28T11:14:57;27.10;48.10
17182;DHT22;8706;48.254;16.422;2024-02-28T11:17:26;27.00;48.10
17182;DHT22;8706;48.254;16.422;2024-02-28T11:19:53;27.10;48.10
17182;DHT22;8706;48.254;16.422;2024-02-28T11:22:20;27.20;48.00
17182;DHT22;8706;48.254;16.422;2024-02-28T11:24:47;27.30;48.00
17182;DHT22;8706;48.254;16.422;2024-02-28T11:27:15;27.30;48.00
17182;DHT22;8706;48.254;16.422;2024-02-28T11:29:42;27.50;47.60
17182;DHT22;8706;48.254;16.422;2024-02-28T11:32:13;27.40;47.60
17182;DHT22;8706;48.254;16.422;2024-02-28T11:34:41;27.10;47.80
17182;DHT22;8706;48.254;16.422;2024-02-28T11:37:09;26.90;48.10
17182;DHT22;8706;48.254;16.422;2024-02-28T11:39:36;26.90;48.30
17182;DHT22;8706;48.254;16.422;2024-02-28T11:42:11;26.90;48.30
17182;DHT22;8706;48.254;16.422;2024-02-28T11:44:38;27.00;48.10
17182;DHT22;8706;48.254;16.422;2024-02-28T11:47:07;27.00;48.20
17182;DHT22;8706;48.254;16.422;2024-02-28T11:49:36;27.10;48.10
17182;DHT22;8706;48.254;16.422;2024-02-28T11:52:03;27.20;48.00
17182;DHT22;8706;48.254;16.422;2024-02-28T11:54:30;27.30;47.80
17182;DHT22;8706;48.254;16.422;2024-02-28T11:56:57;27.30;47.70
17182;DHT22;8706;48.254;16.422;2024-02-28T11:59:24;27.50;47.60
17182;DHT22;8706;48.254;16.422;2024-02-28T12:01:51;27.50;47.60
17182;DHT22;8706;48.254;16.422;2024-02-28T12:04:24;27.60;47.60
17182;DHT22;8706;48.254;16.422;2024-02-28T12:06:52;27.60;47.50
17182;DHT22;8706;48.254;16.422;2024-02-28T12:09:19;27.40;47.60
17182;DHT22;8706;48.254;16.422;2024-02-28T12:11:46;27.20;48.00
17182;DHT22;8706;48.254;16.422;2024-02-28T12:14:13;27.00;48.20
17182;DHT22;8706;48.254;16.422;2024-02-28T12:16:40;26.90;48.40
17182;DHT22;8706;48.254;16.422;2024-02-28T12:19:08;26.80;48.30
17182;DHT22;8706;48.254;16.422;2024-02-28T12:21:35;26.90;48.40
17182;DHT22;8706;48.254;16.422;2024-02-28T12:24:04;26.80;48.50
17182;DHT22;8706;48.254;16.422;2024-02-28T12:26:34;26.60;48.90
17182;DHT22;8706;48.254;16.422;2024-02-28T12:29:01;26.20;49.10
17182;DHT22;8706;48.254;16.422;2024-02-28T12:31:28;25.90;49.70
17182;DHT22;8706;48.254;16.422;2024-02-28T12:33:55;25.70;50.00
17182;DHT22;8706;48.254;16.422;2024-02-28T12:36:22;25.50;50.30
17182;DHT22;8706;48.254;16.422;2024-02-28T12:38:50;25.40;50.40
17182;DHT22;8706;48.254;16.422;2024-02-28T12:41:18;25.30;50.80
17182;DHT22;8706;48.254;16.422;2024-02-28T12:43:45;25.10;50.70
17182;DHT22;8706;48.254;16.422;2024-02-28T12:46:12;25.00;51.00
17182;DHT22;8706;48.254;16.422;2024-02-28T12:48:39;24.90;51.30
17182;DHT22;8706;48.254;16.422;2024-02-28T12:51:06;24.90;51.30
17182;DHT22;8706;48.254;16.422;2024-02-28T12:53:36;24.80;51.30
17182;DHT22;8706;48.254;16.422;2024-02-28T12:56:03;24.80;51.40
17182;DHT22;8706;48.254;16.422;2024-02-28T12:58:32;24.80;51.40
17182;DHT22;8706;48.254;16.422;2024-02-28T13:00:58;24.70;51.40
17182;DHT22;8706;48.254;16.422;2024-02-28T13:03:25;24.70;51.60
17182;DHT22;8706;48.254;16.422;2024-02-28T13:05:53;24.60;51.80
17182;DHT22;8706;48.254;16.422;2024-02-28T13:08:19;24.60;51.90
17182;DHT22;8706;48.254;16.422;2024-02-28T13:10:46;24.70;51.80
17182;DHT22;8706;48.254;16.422;2024-02-28T13:13:13;24.70;51.60
17182;DHT22;8706;48.254;16.422;2024-02-28T13:15:42;24.80;51.50
17182;DHT22;8706;48.254;16.422;2024-02-28T13:18:10;24.80;51.40
17182;DHT22;8706;48.254;16.422;2024-02-28T13:20:37;24.80;51.50
17182;DHT22;8706;48.254;16.422;2024-02-28T13:23:06;24.70;51.60
17182;DHT22;8706;48.254;16.422;2024-02-28T13:25:33;24.80;51.50
17182;DHT22;8706;48.254;16.422;2024-02-28T13:27:59;24.80;51.30
17182;DHT22;8706;48.254;16.422;2024-02-28T13:30:26;24.80;51.30
17182;DHT22;8706;48.254;16.422;2024-02-28T13:32:55;24.90;51.30
17182;DHT22;8706;48.254;16.422;2024-02-28T13:35:22;24.90;51.30
17182;DHT22;8706;48.254;16.422;2024-02-28T13:37:49;24.90;51.40
17182;DHT22;8706;48.254;16.422;2024-02-28T13:40:16;24.90;51.40
17182;DHT22;8706;48.254;16.422;2024-02-28T13:42:43;24.80;51.50
17182;DHT22;8706;48.254;16.422;2024-02-28T13:45:11;24.80;51.60
17182;DHT22;8706;48.254;16.422;2024-02-28T13:47:38;24.70;51.60
17182;DHT22;8706;48.254;16.422;2024-02-28T13:50:07;24.70;51.60
17182;DHT22;8706;48.254;16.422;2024-02-28T13:52:35;24.70;51.60
17182;DHT22;8706;48.254;16.422;2024-02-28T13:55:02;24.60;51.70
17182;DHT22;8706;48.254;16.422;2024-02-28T13:57:29;24.60;51.60
17182;DHT22;8706;48.254;16.422;2024-02-28T13:59:56;24.60;51.80
17182;DHT22;8706;48.254;16.422;2024-02-28T14:02:23;24.60;51.70
17182;DHT22;8706;48.254;16.422;2024-02-28T14:04:51;24.60;51.80
17182;DHT22;8706;48.254;16.422;2024-02-28T14:07:20;24.60;52.10
17182;DHT22;8706;48.254;16.422;2024-02-28T14:09:46;24.60;52.00
17182;DHT22;8706;48.254;16.422;2024-02-28T14:12:14;24.50;51.90
17182;DHT22;8706;48.254;16.422;2024-02-28T14:14:40;24.50;52.00
17182;DHT22;8706;48.254;16.422;2024-02-28T14:17:07;24.50;52.10
17182;DHT22;8706;48.254;16.422;2024-02-28T14:19:34;24.40;52.10
17182;DHT22;8706;48.254;16.422;2024-02-28T14:22:02;24.30;52.20
17182;DHT22;8706;48.254;16.422;2024-02-28T14:24:30;24.30;52.40
17182;DHT22;8706;48.254;16.422;2024-02-28T14:26:57;24.10;52.60
17182;DHT22;8706;48.254;16.422;2024-02-28T14:29:24;24.00;52.90
17182;DHT22;8706;48.254;16.422;2024-02-28T14:31:52;23.80;53.10
17182;DHT22;8706;48.254;16.422;2024-02-28T14:34:18;23.70;53.30
17182;DHT22;8706;48.254;16.422;2024-02-28T14:36:46;23.60;53.50
17182;DHT22;8706;48.254;16.422;2024-02-28T14:39:13;23.60;53.60
17182;DHT22;8706;48.254;16.422;2024-02-28T14:41:43;23.50;53.80
17182;DHT22;8706;48.254;16.422;2024-02-28T14:44:10;23.50;53.90
17182;DHT22;8706;48.254;16.422;2024-02-28T14:46:37;23.50;54.00
17182;DHT22;8706;48.254;16.422;2024-02-28T14:49:04;23.50;54.10
17182;DHT22;8706;48.254;16.422;2024-02-28T14:51:30;23.40;54.10
17182;DHT22;8706;48.254;16.422;2024-02-28T14:53:58;23.40;54.30
17182;DHT22;8706;48.254;16.422;2024-02-28T14:56:25;23.40;54.40
17182;DHT22;8706;48.254;16.422;2024-02-28T14:58:54;23.40;54.50
17182;DHT22;8706;48.254;16.422;2024-02-28T15:01:22;23.30;54.50
17182;DHT22;8706;48.254;16.422;2024-02-28T15:03:50;23.30;54.60
17182;DHT22;8706;48.254;16.422;2024-02-28T15:06:17;23.30;54.80
17182;DHT22;8706;48.254;16.422;2024-02-28T15:08:44;23.20;54.80
17182;DHT22;8706;48.254;16.422;2024-02-28T15:11:11;23.20;54.90
17182;DHT22;8706;48.254;16.422;2024-02-28T15:13:38;23.10;55.00
17182;DHT22;8706;48.254;16.422;2024-02-28T15:16:06;23.00;55.10
17182;DHT22;8706;48.254;16.422;2024-02-28T15:18:33;23.00;55.30
17182;DHT22;8706;48.254;16.422;2024-02-28T15:21:00;22.90;55.30
17182;DHT22;8706;48.254;16.422;2024-02-28T15:23:27;22.90;55.40
17182;DHT22;8706;48.254;16.422;2024-02-28T15:25:54;22.80;55.50
17182;DHT22;8706;48.254;16.422;2024-02-28T15:28:21;22.80;55.70
17182;DHT22;8706;48.254;16.422;2024-02-28T15:30:49;22.70;55.80